EGPH/EDI METAR and TAF weather

Enter ICAO airport designator
Station Type Date Time Source
EGPH METAR 2022/07/03 14:50 UTC NOAA

EGPH 031450Z 26010KT 9999 SCT033 16/09 Q1016


Station Type Date Time Source
EGPH Decoded METAR 2022/07/03 14:50 UTC NOAA

Edinburgh Airport, United Kingdom (EGPH) 55-57N 003-21W 0M
Jul 03, 2022 - 10:50 AM EDT / 2022.07.03 1450 UTC
Wind: from the W (260 degrees) at 12 MPH (10 KT):0
Visibility: greater than 7 mile(s):0
Sky conditions: partly cloudy
Temperature: 60 F (16 C)
Dew Point: 48 F (9 C)
Relative Humidity: 63%
Pressure (altimeter): 30.00 in. Hg (1016 hPa)
ob: EGPH 031450Z 26010KT 9999 SCT033 16/09 Q1016
cycle: 15

Station Type Date Time Source
EGPH TAF 2022/07/03 12:09 UTC NOAA

TAF EGPH 031056Z 0312/0412 26012KT 9999 SCT030 PROB40
TEMPO 0312/0318 26015G25KT 7000 SHRA PROB30
TEMPO 0321/0410 8000 -RA BKN014
BECMG 0406/0409 27017G27KT

Example: see airport list